createdAt,value
2017-04-18T00:00:35.061Z,0
2017-04-18T00:01:47.603Z,0
2017-04-18T00:03:00.119Z,0
2017-04-18T00:04:12.362Z,0
2017-04-18T00:05:24.907Z,0
2017-04-18T00:06:37.414Z,0
2017-04-18T00:07:49.934Z,0
2017-04-18T00:09:02.428Z,0
2017-04-18T00:10:14.924Z,0
2017-04-18T00:11:27.430Z,0
2017-04-18T00:12:39.666Z,0
2017-04-18T00:13:52.333Z,0
2017-04-18T00:15:04.926Z,0
2017-04-18T00:16:17.279Z,0
2017-04-18T00:17:29.499Z,0
2017-04-18T00:18:42.021Z,0
2017-04-18T00:19:54.216Z,0
2017-04-18T00:21:06.734Z,0
2017-04-18T00:22:19.258Z,0
2017-04-18T00:23:31.772Z,0
2017-04-18T00:24:44.293Z,0
2017-04-18T00:25:56.792Z,0
2017-04-18T00:27:09.301Z,0
2017-04-18T00:28:21.813Z,0
2017-04-18T00:29:34.337Z,0
2017-04-18T00:30:46.857Z,0
2017-04-18T00:31:59.351Z,0
2017-04-18T00:33:12.324Z,0
2017-04-18T00:34:24.885Z,0
2017-04-18T00:35:37.416Z,0
2017-04-18T00:36:49.966Z,0
2017-04-18T00:38:02.184Z,0
2017-04-18T00:39:14.426Z,0
2017-04-18T00:40:26.923Z,0
2017-04-18T00:41:39.461Z,0
2017-04-18T00:42:51.988Z,0
2017-04-18T00:44:04.503Z,0
2017-04-18T00:45:16.726Z,0
2017-04-18T00:46:29.518Z,0
2017-04-18T00:47:42.057Z,0
2017-04-18T00:48:54.271Z,0
2017-04-18T00:50:07.014Z,0
2017-04-18T00:51:19.535Z,0
2017-04-18T00:52:32.035Z,0
2017-04-18T00:53:44.252Z,0
2017-04-18T00:54:56.794Z,0
2017-04-18T00:56:09.300Z,0
2017-04-18T00:57:21.520Z,0
2017-04-18T00:58:34.056Z,0
2017-04-18T00:59:46.583Z,0
2017-04-18T01:00:58.483Z,0
2017-04-18T01:02:11.002Z,0
2017-04-18T01:03:23.528Z,0
2017-04-18T01:04:36.040Z,0
2017-04-18T01:05:48.552Z,0
2017-04-18T01:07:01.107Z,0
2017-04-18T01:08:13.603Z,0
2017-04-18T01:09:26.143Z,0
2017-04-18T01:10:38.345Z,0
2017-04-18T01:11:50.593Z,0
2017-04-18T01:13:03.111Z,0
2017-04-18T01:14:15.661Z,0
2017-04-18T01:15:28.208Z,0
2017-04-18T01:16:40.748Z,0
2017-04-18T01:17:52.996Z,0
2017-04-18T01:19:05.844Z,0
2017-04-18T01:20:18.040Z,0
2017-04-18T01:21:30.262Z,0
2017-04-18T01:22:42.804Z,0
2017-04-18T01:23:55.567Z,0
2017-04-18T01:25:08.070Z,0
2017-04-18T01:26:20.595Z,0
2017-04-18T01:27:33.283Z,0
2017-04-18T01:28:45.811Z,0
2017-04-18T01:29:58.335Z,0
2017-04-18T01:31:10.846Z,0
2017-04-18T01:32:23.376Z,0
2017-04-18T01:33:35.923Z,0
2017-04-18T01:34:48.440Z,0
2017-04-18T01:36:00.658Z,0
2017-04-18T01:37:13.158Z,0
2017-04-18T01:38:25.678Z,0
2017-04-18T01:39:38.200Z,0
2017-04-18T01:40:50.445Z,0
2017-04-18T01:42:02.667Z,0
2017-04-18T01:43:15.189Z,0
2017-04-18T01:44:27.722Z,0
2017-04-18T01:45:40.507Z,0
2017-04-18T01:46:53.021Z,0
2017-04-18T01:48:05.521Z,0
2017-04-18T01:49:18.042Z,0
2017-04-18T01:50:30.569Z,0
2017-04-18T01:51:43.098Z,0
2017-04-18T01:52:55.622Z,0
2017-04-18T01:54:08.151Z,0
2017-04-18T01:55:20.671Z,0
2017-04-18T01:56:33.214Z,0
2017-04-18T01:57:45.763Z,0
2017-04-18T01:58:58.327Z,0
2017-04-18T02:00:10.533Z,0
2017-04-18T02:01:22.748Z,0
2017-04-18T02:02:35.325Z,0
2017-04-18T02:03:47.886Z,0
2017-04-18T02:05:00.456Z,0
2017-04-18T02:06:13.081Z,0
2017-04-18T02:07:25.921Z,0
2017-04-18T02:08:38.449Z,0
2017-04-18T02:09:50.972Z,0
2017-04-18T02:11:02.909Z,0
2017-04-18T02:12:15.436Z,0
2017-04-18T02:13:27.653Z,0
2017-04-18T02:14:39.869Z,0
2017-04-18T02:15:52.083Z,0
2017-04-18T02:17:04.669Z,0
2017-04-18T02:18:17.195Z,0
2017-04-18T02:19:29.107Z,0
2017-04-18T02:20:41.653Z,0
2017-04-18T02:21:53.853Z,0
2017-04-18T02:23:06.381Z,0
2017-04-18T02:24:18.899Z,0
2017-04-18T02:25:31.419Z,0
2017-04-18T02:26:43.936Z,0
2017-04-18T02:27:56.159Z,0
2017-04-18T02:29:08.654Z,0
2017-04-18T02:30:21.179Z,0
2017-04-18T02:31:33.716Z,0
2017-04-18T02:32:46.269Z,0
2017-04-18T02:33:58.792Z,0
2017-04-18T02:35:11.276Z,0
2017-04-18T02:36:23.807Z,0
2017-04-18T02:37:36.042Z,0
2017-04-18T02:38:48.573Z,0
2017-04-18T02:40:01.131Z,0
2017-04-18T02:41:13.671Z,0
2017-04-18T02:42:26.184Z,0
2017-04-18T02:43:38.726Z,0
2017-04-18T02:44:50.679Z,0
2017-04-18T02:46:02.924Z,0
2017-04-18T02:47:15.418Z,0
2017-04-18T02:48:27.638Z,0
2017-04-18T02:49:40.159Z,0
2017-04-18T02:50:52.660Z,0
2017-04-18T02:52:05.204Z,0
2017-04-18T02:53:17.731Z,0
2017-04-18T02:54:30.271Z,0
2017-04-18T02:55:42.814Z,0
2017-04-18T02:56:54.741Z,0
2017-04-18T02:58:07.280Z,0
2017-04-18T02:59:19.797Z,0
2017-04-18T03:00:32.022Z,0
2017-04-18T03:01:44.536Z,0
2017-04-18T03:02:57.044Z,0
2017-04-18T03:04:09.587Z,0
2017-04-18T03:05:21.928Z,0
2017-04-18T03:06:34.130Z,0
2017-04-18T03:07:46.653Z,0
2017-04-18T03:08:59.189Z,0
2017-04-18T03:10:11.720Z,0
2017-04-18T03:11:24.260Z,0
2017-04-18T03:12:36.788Z,0
2017-04-18T03:13:49.301Z,0
2017-04-18T03:15:01.223Z,0
2017-04-18T03:16:13.736Z,0
2017-04-18T03:17:26.243Z,0
2017-04-18T03:18:38.493Z,0
2017-04-18T03:19:51.059Z,0
2017-04-18T03:21:03.598Z,0
2017-04-18T03:22:16.102Z,0
2017-04-18T03:23:28.875Z,0
2017-04-18T03:24:41.409Z,0
2017-04-18T03:25:54.111Z,0
2017-04-18T03:27:06.332Z,0
2017-04-18T03:28:18.858Z,0
2017-04-18T03:29:31.691Z,0
2017-04-18T03:30:44.221Z,0
2017-04-18T03:31:56.462Z,4
2017-04-18T03:33:08.970Z,0
2017-04-18T03:34:21.509Z,4
2017-04-18T03:35:34.046Z,4
2017-04-18T03:36:46.554Z,4
2017-04-18T03:37:59.066Z,4
2017-04-18T03:39:11.310Z,4
2017-04-18T03:40:23.558Z,4
2017-04-18T03:41:36.058Z,8
2017-04-18T03:42:48.875Z,8
2017-04-18T03:44:01.296Z,8
2017-04-18T03:45:13.824Z,12
2017-04-18T03:46:26.359Z,12
2017-04-18T03:47:38.888Z,12
2017-04-18T03:48:51.408Z,16
2017-04-18T03:50:03.909Z,20
2017-04-18T03:51:16.700Z,20
2017-04-18T03:52:29.203Z,20
2017-04-18T03:53:41.796Z,24
2017-04-18T03:54:54.313Z,32
2017-04-18T03:56:06.855Z,40
2017-04-18T03:57:19.080Z,40
2017-04-18T03:58:31.283Z,48
2017-04-18T03:59:43.813Z,60
2017-04-18T04:00:56.136Z,60
2017-04-18T04:02:08.655Z,48
2017-04-18T04:03:21.241Z,52
2017-04-18T04:04:33.758Z,64
2017-04-18T04:05:46.306Z,76
2017-04-18T04:06:58.790Z,88
2017-04-18T04:08:11.352Z,104
2017-04-18T04:09:23.868Z,132
2017-04-18T04:10:36.091Z,164
2017-04-18T04:11:48.606Z,228
2017-04-18T04:13:00.826Z,284
2017-04-18T04:14:13.322Z,308
2017-04-18T04:15:25.547Z,316
2017-04-18T04:16:37.769Z,336
2017-04-18T04:17:50.565Z,348
2017-04-18T04:19:02.794Z,312
2017-04-18T04:20:15.431Z,292
2017-04-18T04:21:27.973Z,388
2017-04-18T04:22:39.574Z,484
2017-04-18T04:23:52.086Z,552
2017-04-18T04:25:04.615Z,568
2017-04-18T04:26:17.135Z,592
2017-04-18T04:27:29.653Z,600
2017-04-18T04:28:41.894Z,604
2017-04-18T04:29:54.461Z,524
2017-04-18T04:31:07.011Z,540
2017-04-18T04:32:19.215Z,492
2017-04-18T04:33:31.753Z,384
2017-04-18T04:34:44.303Z,344
2017-04-18T04:35:56.824Z,288
2017-04-18T04:37:09.329Z,260
2017-04-18T04:38:21.867Z,296
2017-04-18T04:39:34.690Z,340
2017-04-18T04:40:47.400Z,376
2017-04-18T04:41:59.930Z,560
2017-04-18T04:43:12.475Z,784
2017-04-18T04:44:25.013Z,892
2017-04-18T04:45:37.861Z,824
2017-04-18T04:46:50.367Z,616
2017-04-18T04:48:02.887Z,472
2017-04-18T04:49:15.402Z,472
2017-04-18T04:50:27.934Z,428
2017-04-18T04:51:40.471Z,440
2017-04-18T04:52:52.968Z,604
2017-04-18T04:54:05.487Z,636
2017-04-18T04:55:18.009Z,560
2017-04-18T04:56:30.223Z,604
2017-04-18T04:57:42.751Z,656
2017-04-18T04:58:55.276Z,692
2017-04-18T05:00:07.520Z,772
2017-04-18T05:01:20.040Z,800
2017-04-18T05:02:32.658Z,1100
2017-04-18T05:03:45.173Z,1180
2017-04-18T05:04:57.381Z,1160
2017-04-18T05:06:09.940Z,1204
2017-04-18T05:07:22.495Z,1356
2017-04-18T05:08:35.057Z,1092
2017-04-18T05:09:47.589Z,996
2017-04-18T05:10:59.827Z,1088
2017-04-18T05:12:12.331Z,932
2017-04-18T05:13:24.868Z,840
2017-04-18T05:14:37.389Z,792
2017-04-18T05:15:49.920Z,756
2017-04-18T05:17:02.438Z,732
2017-04-18T05:18:14.974Z,968
2017-04-18T05:19:27.494Z,1008
2017-04-18T05:20:40.031Z,956
2017-04-18T05:21:52.561Z,1244
2017-04-18T05:23:05.361Z,1388
2017-04-18T05:24:17.581Z,1648
2017-04-18T05:25:30.109Z,1804
2017-04-18T05:26:42.027Z,2064
2017-04-18T05:27:54.232Z,1888
2017-04-18T05:29:06.447Z,1736
2017-04-18T05:30:18.970Z,2328
2017-04-18T05:31:31.186Z,3476
2017-04-18T05:32:43.725Z,3440
2017-04-18T05:33:56.253Z,2908
2017-04-18T05:35:08.798Z,2824
2017-04-18T05:36:21.298Z,2388
2017-04-18T05:37:33.833Z,2408
2017-04-18T05:38:46.365Z,1788
2017-04-18T05:39:58.916Z,1360
2017-04-18T05:41:11.453Z,1240
2017-04-18T05:42:23.977Z,1144
2017-04-18T05:43:36.512Z,1172
2017-04-18T05:44:48.966Z,1256
2017-04-18T05:46:01.482Z,1256
2017-04-18T05:47:14.262Z,1404
2017-04-18T05:48:27.004Z,1744
2017-04-18T05:49:39.209Z,1868
2017-04-18T05:50:51.729Z,1776
2017-04-18T05:52:04.247Z,1744
2017-04-18T05:53:16.482Z,1984
2017-04-18T05:54:28.713Z,1828
2017-04-18T05:55:41.255Z,1804
2017-04-18T05:56:53.771Z,1672
2017-04-18T05:58:06.290Z,2092
2017-04-18T05:59:18.522Z,2660
2017-04-18T06:00:31.058Z,2712
2017-04-18T06:01:43.279Z,2952
2017-04-18T06:02:55.522Z,3144
2017-04-18T06:04:08.027Z,3092
2017-04-18T06:05:19.921Z,3264
2017-04-18T06:06:32.397Z,3348
2017-04-18T06:07:44.942Z,3788
2017-04-18T06:08:57.359Z,4112
2017-04-18T06:10:09.797Z,3996
2017-04-18T06:11:22.534Z,3272
2017-04-18T06:12:34.766Z,3140
2017-04-18T06:13:47.015Z,2964
2017-04-18T06:14:59.243Z,2524
2017-04-18T06:16:11.761Z,2316
2017-04-18T06:17:24.309Z,2504
2017-04-18T06:18:36.529Z,3148
2017-04-18T06:19:49.053Z,3624
2017-04-18T06:21:01.289Z,4144
2017-04-18T06:22:13.818Z,3480
2017-04-18T06:23:26.060Z,3352
2017-04-18T06:24:38.584Z,3156
2017-04-18T06:25:51.118Z,3332
2017-04-18T06:27:03.669Z,3632
2017-04-18T06:28:16.189Z,3624
2017-04-18T06:29:28.732Z,3192
2017-04-18T06:30:41.252Z,3312
2017-04-18T06:31:53.784Z,3976
2017-04-18T06:33:06.656Z,4056
2017-04-18T06:34:19.201Z,3348
2017-04-18T06:35:31.750Z,3792
2017-04-18T06:36:43.965Z,4720
2017-04-18T06:37:56.506Z,6228
2017-04-18T06:39:09.000Z,5712
2017-04-18T06:40:21.230Z,5292
2017-04-18T06:41:33.172Z,5760
2017-04-18T06:42:44.799Z,7548
2017-04-18T06:43:57.319Z,8196
2017-04-18T06:45:09.828Z,7876
2017-04-18T06:46:22.362Z,9312
2017-04-18T06:47:34.944Z,11008
2017-04-18T06:48:47.473Z,10200
2017-04-18T06:49:59.996Z,10488
2017-04-18T06:51:12.514Z,10332
2017-04-18T06:52:23.840Z,11660
2017-04-18T06:53:35.468Z,14932
2017-04-18T06:54:48.004Z,15800
2017-04-18T06:56:00.506Z,13244
2017-04-18T06:57:13.170Z,10708
2017-04-18T06:58:25.674Z,7820
2017-04-18T06:59:38.233Z,6060
2017-04-18T07:00:50.738Z,7504
2017-04-18T07:02:02.656Z,11160
2017-04-18T07:03:14.278Z,10208
2017-04-18T07:04:26.799Z,9072
2017-04-18T07:05:39.359Z,13060
2017-04-18T07:06:51.562Z,13192
2017-04-18T07:08:03.787Z,12052
2017-04-18T07:09:16.357Z,11100
2017-04-18T07:10:28.910Z,11196
2017-04-18T07:11:40.549Z,10700
2017-04-18T07:12:51.912Z,11528
2017-04-18T07:14:04.121Z,14432
2017-04-18T07:15:16.360Z,21760
2017-04-18T07:16:28.700Z,19072
2017-04-18T07:17:41.618Z,18976
2017-04-18T07:18:54.142Z,16024
2017-04-18T07:20:06.342Z,14936
2017-04-18T07:21:18.862Z,12260
2017-04-18T07:22:30.505Z,10128
2017-04-18T07:23:41.209Z,9892
2017-04-18T07:24:52.544Z,10380
2017-04-18T07:26:05.065Z,10896
2017-04-18T07:27:17.596Z,12904
2017-04-18T07:28:30.121Z,12404
2017-04-18T07:29:42.363Z,13176
2017-04-18T07:30:54.912Z,14876
2017-04-18T07:32:06.251Z,12776
2017-04-18T07:33:17.276Z,13100
2017-04-18T07:34:28.296Z,14808
2017-04-18T07:35:39.626Z,16232
2017-04-18T07:36:51.540Z,15792
2017-04-18T07:38:03.776Z,17088
2017-04-18T07:39:16.112Z,16272
2017-04-18T07:40:28.526Z,14996
2017-04-18T07:41:40.739Z,14344
2017-04-18T07:42:52.385Z,13100
2017-04-18T07:44:03.130Z,16936
2017-04-18T07:45:14.459Z,19328
2017-04-18T07:46:25.482Z,16300
2017-04-18T07:47:37.155Z,13200
2017-04-18T07:48:49.403Z,12172
2017-04-18T07:50:01.646Z,13720
2017-04-18T07:51:14.188Z,15632
2017-04-18T07:52:25.512Z,17888
2017-04-18T07:53:36.554Z,19200
2017-04-18T07:54:47.274Z,23488
2017-04-18T07:55:58.296Z,22656
2017-04-18T07:57:09.616Z,16828
2017-04-18T07:58:20.642Z,15548
2017-04-18T07:59:32.905Z,15084
2017-04-18T08:00:44.829Z,13304
2017-04-18T08:01:57.230Z,13364
2017-04-18T08:03:09.672Z,12784
2017-04-18T08:04:22.194Z,13392
2017-04-18T08:05:34.442Z,12940
2017-04-18T08:06:46.688Z,12152
2017-04-18T08:07:59.211Z,13904
2017-04-18T08:09:11.426Z,15620
2017-04-18T08:10:23.922Z,16400
2017-04-18T08:11:35.871Z,13792
2017-04-18T08:12:48.103Z,16844
2017-04-18T08:14:00.634Z,18880
2017-04-18T08:15:12.258Z,16108
2017-04-18T08:16:23.885Z,19488
2017-04-18T08:17:36.129Z,20064
2017-04-18T08:18:47.776Z,17888
2017-04-18T08:19:59.865Z,20544
2017-04-18T08:21:12.266Z,16212
2017-04-18T08:22:24.511Z,16760
2017-04-18T08:23:36.756Z,16856
2017-04-18T08:24:48.721Z,18016
2017-04-18T08:26:00.948Z,16244
2017-04-18T08:27:13.166Z,13796
2017-04-18T08:28:25.390Z,12168
2017-04-18T08:29:37.609Z,9952
2017-04-18T08:30:49.549Z,10552
2017-04-18T08:32:01.757Z,11624
2017-04-18T08:33:13.400Z,13556
2017-04-18T08:34:25.617Z,16576
2017-04-18T08:35:38.163Z,18208
2017-04-18T08:36:50.687Z,20160
2017-04-18T08:38:02.307Z,22560
2017-04-18T08:39:14.550Z,26080
2017-04-18T08:40:27.091Z,28256
2017-04-18T08:41:39.345Z,29856
2017-04-18T08:42:51.591Z,30432
2017-04-18T08:44:03.513Z,30720
2017-04-18T08:45:15.757Z,29536
2017-04-18T08:46:28.293Z,29216
2017-04-18T08:47:40.539Z,28096
2017-04-18T08:48:52.476Z,26528
2017-04-18T08:50:05.037Z,28128
2017-04-18T08:51:17.284Z,24256
2017-04-18T08:52:29.208Z,25920
2017-04-18T08:53:40.455Z,23328
2017-04-18T08:54:51.500Z,25120
2017-04-18T08:56:02.817Z,24864
2017-04-18T08:57:13.659Z,29536
2017-04-18T08:58:25.055Z,28896
2017-04-18T08:59:36.984Z,30304
2017-04-18T09:00:49.219Z,30336
2017-04-18T09:02:01.740Z,28384
2017-04-18T09:03:14.262Z,27680
2017-04-18T09:04:26.464Z,22752
2017-04-18T09:05:38.985Z,27936
2017-04-18T09:06:51.212Z,29408
2017-04-18T09:08:03.456Z,23936
2017-04-18T09:09:15.107Z,23264
2017-04-18T09:10:27.348Z,21280
2017-04-18T09:11:39.887Z,15676
2017-04-18T09:12:52.110Z,14868
2017-04-18T09:14:04.059Z,20032
2017-04-18T09:15:16.307Z,20000
2017-04-18T09:16:28.849Z,26944
2017-04-18T09:17:41.374Z,23424
2017-04-18T09:18:53.920Z,28832
2017-04-18T09:20:06.162Z,31232
2017-04-18T09:21:18.683Z,35680
2017-04-18T09:22:31.179Z,28864
2017-04-18T09:23:43.453Z,32992
2017-04-18T09:24:55.678Z,24896
2017-04-18T09:26:07.917Z,25376
2017-04-18T09:27:20.489Z,25984
2017-04-18T09:28:32.714Z,24096
2017-04-18T09:29:44.604Z,21440
2017-04-18T09:30:56.546Z,15920
2017-04-18T09:32:09.072Z,13692
2017-04-18T09:33:20.995Z,14560
2017-04-18T09:34:33.284Z,17240
2017-04-18T09:35:45.261Z,20768
2017-04-18T09:36:57.485Z,22880
2017-04-18T09:38:10.044Z,22272
2017-04-18T09:39:22.589Z,22112
2017-04-18T09:40:34.839Z,21664
2017-04-18T09:41:47.067Z,19552
2017-04-18T09:42:59.636Z,21440
2017-04-18T09:44:11.257Z,26080
2017-04-18T09:45:23.523Z,24768
2017-04-18T09:46:35.765Z,20640
2017-04-18T09:47:47.718Z,22080
2017-04-18T09:48:59.768Z,25408
2017-04-18T09:50:11.668Z,25376
2017-04-18T09:51:23.598Z,28320
2017-04-18T09:52:36.155Z,32704
2017-04-18T09:53:48.072Z,35776
2017-04-18T09:55:00.314Z,35488
2017-04-18T09:56:12.559Z,35968
2017-04-18T09:57:24.489Z,35072
2017-04-18T09:58:36.731Z,36416
2017-04-18T09:59:49.294Z,37344
2017-04-18T10:01:01.223Z,37056
2017-04-18T10:02:13.472Z,32000
2017-04-18T10:03:25.718Z,30304
2017-04-18T10:04:38.063Z,30656
2017-04-18T10:05:49.578Z,30240
2017-04-18T10:07:01.530Z,21280
2017-04-18T10:08:13.179Z,15648
2017-04-18T10:09:25.715Z,15680
2017-04-18T10:10:37.665Z,19072
2017-04-18T10:11:49.887Z,20256
2017-04-18T10:13:02.111Z,23712
2017-04-18T10:14:14.332Z,49216
2017-04-18T10:15:26.574Z,69120
2017-04-18T10:16:38.799Z,42528
2017-04-18T10:17:50.745Z,35488
2017-04-18T10:19:03.305Z,22592
2017-04-18T10:20:15.837Z,27936
2017-04-18T10:21:27.780Z,18592
2017-04-18T10:22:40.308Z,16180
2017-04-18T10:23:52.694Z,27680
2017-04-18T10:25:04.620Z,76480
2017-04-18T10:26:16.592Z,58400
2017-04-18T10:27:28.510Z,44192
2017-04-18T10:28:40.433Z,32224
2017-04-18T10:29:52.699Z,32864
2017-04-18T10:31:04.646Z,20896
2017-04-18T10:32:17.170Z,84512
2017-04-18T10:33:29.106Z,25504
2017-04-18T10:34:41.030Z,22464
2017-04-18T10:35:53.275Z,18688
2017-04-18T10:37:05.507Z,16916
2017-04-18T10:38:17.763Z,16236
2017-04-18T10:39:29.992Z,18304
2017-04-18T10:40:41.914Z,19488
2017-04-18T10:41:54.156Z,17092
2017-04-18T10:43:07.034Z,13956
2017-04-18T10:44:19.550Z,75072
2017-04-18T10:45:31.472Z,78176
2017-04-18T10:46:43.984Z,79776
2017-04-18T10:47:56.513Z,53312
2017-04-18T10:49:08.756Z,19328
2017-04-18T10:50:20.705Z,73600
2017-04-18T10:51:32.903Z,22848
2017-04-18T10:52:44.822Z,11780
2017-04-18T10:53:56.743Z,13180
2017-04-18T10:55:08.981Z,15744
2017-04-18T10:56:21.252Z,25088
2017-04-18T10:57:33.182Z,85984
2017-04-18T10:58:45.130Z,66912
2017-04-18T10:59:57.053Z,75072
2017-04-18T11:01:09.724Z,85344
2017-04-18T11:02:21.718Z,26304
2017-04-18T11:03:33.961Z,24160
2017-04-18T11:04:45.899Z,24448
2017-04-18T11:05:58.153Z,22784
2017-04-18T11:07:10.403Z,16400
2017-04-18T11:08:22.345Z,12656
2017-04-18T11:09:34.894Z,12080
2017-04-18T11:10:47.441Z,12372
2017-04-18T11:11:59.685Z,13404
2017-04-18T11:13:11.334Z,15788
2017-04-18T11:14:23.574Z,18368
2017-04-18T11:15:35.848Z,19936
2017-04-18T11:16:47.795Z,20480
2017-04-18T11:18:00.041Z,23328
2017-04-18T11:19:12.584Z,15008
2017-04-18T11:20:25.272Z,43904
2017-04-18T11:21:37.806Z,85504
2017-04-18T11:22:50.323Z,19616
2017-04-18T11:24:02.262Z,17824
2017-04-18T11:25:14.830Z,20480
2017-04-18T11:26:27.050Z,88128
2017-04-18T11:27:39.279Z,83968
2017-04-18T11:28:51.243Z,26080
2017-04-18T11:30:03.799Z,90240
2017-04-18T11:31:15.746Z,30304
2017-04-18T11:32:27.696Z,24416
2017-04-18T11:33:40.253Z,67936
2017-04-18T11:34:52.777Z,89152
2017-04-18T11:36:05.302Z,87072
2017-04-18T11:37:17.842Z,28352
2017-04-18T11:38:30.096Z,45856
2017-04-18T11:39:43.138Z,18208
2017-04-18T11:40:55.065Z,17088
2017-04-18T11:42:07.354Z,14080
2017-04-18T11:43:19.305Z,13872
2017-04-18T11:44:31.250Z,11968
2017-04-18T11:45:43.785Z,11704
2017-04-18T11:46:56.043Z,12096
2017-04-18T11:48:08.306Z,13272
2017-04-18T11:49:20.838Z,15088
2017-04-18T11:50:33.076Z,16140
2017-04-18T11:51:45.300Z,16760
2017-04-18T11:52:56.946Z,17892
2017-04-18T11:54:09.196Z,20640
2017-04-18T11:55:20.839Z,24704
2017-04-18T11:56:33.081Z,29472
2017-04-18T11:57:45.328Z,84864
2017-04-18T11:58:57.876Z,83776
2017-04-18T12:00:10.395Z,67712
2017-04-18T12:01:22.616Z,32160
2017-04-18T12:02:34.546Z,13804
2017-04-18T12:03:47.102Z,13396
2017-04-18T12:04:58.728Z,12892
2017-04-18T12:06:10.677Z,12800
2017-04-18T12:07:23.238Z,14268
2017-04-18T12:08:35.465Z,16256
2017-04-18T12:09:47.688Z,18176
2017-04-18T12:10:59.611Z,19712
2017-04-18T12:12:11.257Z,21056
2017-04-18T12:13:23.517Z,22272
2017-04-18T12:14:36.326Z,23552
2017-04-18T12:15:48.822Z,24704
2017-04-18T12:17:01.052Z,26528
2017-04-18T12:18:12.684Z,28672
2017-04-18T12:19:24.583Z,76256
2017-04-18T12:20:37.146Z,57088
2017-04-18T12:21:49.074Z,41152
2017-04-18T12:23:01.638Z,43104
2017-04-18T12:24:13.881Z,60864
2017-04-18T12:25:25.833Z,39872
2017-04-18T12:26:37.757Z,23456
2017-04-18T12:27:49.683Z,22336
2017-04-18T12:29:02.242Z,22944
2017-04-18T12:30:14.491Z,23808
2017-04-18T12:31:26.717Z,24992
2017-04-18T12:32:39.263Z,27968
2017-04-18T12:33:51.809Z,31136
2017-04-18T12:35:04.054Z,33760
2017-04-18T12:36:16.597Z,64096
2017-04-18T12:37:29.444Z,60576
2017-04-18T12:38:41.081Z,31488
2017-04-18T12:39:52.413Z,19456
2017-04-18T12:41:04.059Z,13912
2017-04-18T12:42:15.676Z,12096
2017-04-18T12:43:27.606Z,11816
2017-04-18T12:44:39.543Z,11524
2017-04-18T12:45:51.173Z,11028
2017-04-18T12:47:03.714Z,10124
2017-04-18T12:48:15.658Z,10004
2017-04-18T12:49:27.894Z,11140
2017-04-18T12:50:39.842Z,12228
2017-04-18T12:51:52.071Z,13272
2017-04-18T12:53:03.993Z,14076
2017-04-18T12:54:15.940Z,14652
2017-04-18T12:55:27.588Z,15888
2017-04-18T12:56:39.503Z,17356
2017-04-18T12:57:51.420Z,19680
2017-04-18T12:59:03.950Z,23552
2017-04-18T13:00:15.899Z,25120
2017-04-18T13:01:28.137Z,25760
2017-04-18T13:02:39.761Z,25568
2017-04-18T13:03:51.082Z,25088
2017-04-18T13:05:02.744Z,24160
2017-04-18T13:06:14.649Z,22464
2017-04-18T13:07:26.595Z,19904
2017-04-18T13:08:38.393Z,16208
2017-04-18T13:09:50.904Z,16152
2017-04-18T13:11:02.834Z,12460
2017-04-18T13:12:14.781Z,9080
2017-04-18T13:13:25.825Z,6612
2017-04-18T13:14:38.092Z,5056
2017-04-18T13:15:50.008Z,4372
2017-04-18T13:17:02.553Z,4088
2017-04-18T13:18:14.787Z,4196
2017-04-18T13:19:27.046Z,4412
2017-04-18T13:20:38.688Z,4844
2017-04-18T13:21:50.326Z,4932
2017-04-18T13:23:01.638Z,5460
2017-04-18T13:24:12.934Z,6344
2017-04-18T13:25:24.559Z,7572
2017-04-18T13:26:35.904Z,8804
2017-04-18T13:27:48.149Z,9936
2017-04-18T13:28:59.789Z,10688
2017-04-18T13:30:12.330Z,10980
2017-04-18T13:31:24.265Z,11508
2017-04-18T13:32:36.203Z,12160
2017-04-18T13:33:47.268Z,13116
2017-04-18T13:34:59.528Z,14136
2017-04-18T13:36:11.751Z,15148
2017-04-18T13:37:24.290Z,15872
2017-04-18T13:38:36.853Z,16620
2017-04-18T13:39:49.108Z,17220
2017-04-18T13:41:01.350Z,17312
2017-04-18T13:42:13.313Z,17408
2017-04-18T13:43:25.314Z,17652
2017-04-18T13:44:36.719Z,17984
2017-04-18T13:45:48.662Z,18112
2017-04-18T13:47:00.578Z,17092
2017-04-18T13:48:12.832Z,16412
2017-04-18T13:49:23.878Z,16004
2017-04-18T13:50:36.420Z,16172
2017-04-18T13:51:48.646Z,16384
2017-04-18T13:52:59.990Z,17596
2017-04-18T13:54:11.314Z,19936
2017-04-18T13:55:22.382Z,22016
2017-04-18T13:56:33.724Z,19552
2017-04-18T13:57:45.046Z,10972
2017-04-18T13:58:57.260Z,5268
2017-04-18T14:00:09.906Z,3564
2017-04-18T14:01:22.229Z,3696
2017-04-18T14:02:33.832Z,4004
2017-04-18T14:03:45.179Z,4324
2017-04-18T14:04:56.525Z,4568
2017-04-18T14:06:07.577Z,4732
2017-04-18T14:07:18.616Z,4872
2017-04-18T14:08:30.562Z,4984
2017-04-18T14:09:42.777Z,5292
2017-04-18T14:10:55.297Z,5560
2017-04-18T14:12:07.222Z,5820
2017-04-18T14:13:19.765Z,6172
2017-04-18T14:14:32.310Z,6544
2017-04-18T14:15:44.813Z,6948
2017-04-18T14:16:57.031Z,7440
2017-04-18T14:18:09.633Z,8068
2017-04-18T14:19:21.848Z,8840
2017-04-18T14:20:34.597Z,9728
2017-04-18T14:21:47.114Z,10752
2017-04-18T14:22:59.639Z,11868
2017-04-18T14:24:12.199Z,12644
2017-04-18T14:25:24.732Z,12660
2017-04-18T14:26:37.251Z,12548
2017-04-18T14:27:49.797Z,10524
2017-04-18T14:29:02.340Z,11956
2017-04-18T14:30:14.882Z,14388
2017-04-18T14:31:27.160Z,16920
2017-04-18T14:32:39.671Z,18752
2017-04-18T14:33:52.391Z,19584
2017-04-18T14:35:04.919Z,21120
2017-04-18T14:36:17.444Z,21984
2017-04-18T14:37:29.989Z,20416
2017-04-18T14:38:42.235Z,18976
2017-04-18T14:39:54.757Z,18304
2017-04-18T14:41:07.294Z,18976
2017-04-18T14:42:19.821Z,20480
2017-04-18T14:43:32.059Z,21184
2017-04-18T14:44:44.590Z,20480
2017-04-18T14:45:56.837Z,19872
2017-04-18T14:47:09.057Z,19456
2017-04-18T14:48:21.601Z,19552
2017-04-18T14:49:34.166Z,18560
2017-04-18T14:50:46.875Z,18816
2017-04-18T14:51:59.411Z,19584
2017-04-18T14:53:11.934Z,20512
2017-04-18T14:54:24.449Z,19680
2017-04-18T14:55:36.975Z,15612
2017-04-18T14:56:49.199Z,10848
2017-04-18T14:58:01.741Z,7880
2017-04-18T14:59:14.619Z,7356
2017-04-18T15:00:26.834Z,8184
2017-04-18T15:01:39.358Z,10120
2017-04-18T15:02:51.900Z,12216
2017-04-18T15:04:03.820Z,13516
2017-04-18T15:05:16.062Z,14836
2017-04-18T15:06:28.292Z,16400
2017-04-18T15:07:40.537Z,16332
2017-04-18T15:08:53.107Z,17856
2017-04-18T15:10:05.343Z,17728
2017-04-18T15:11:17.875Z,14576
2017-04-18T15:12:30.418Z,10016
2017-04-18T15:13:42.941Z,5932
2017-04-18T15:14:55.459Z,3608
2017-04-18T15:16:07.980Z,2788
2017-04-18T15:17:20.526Z,2556
2017-04-18T15:18:33.048Z,2960
2017-04-18T15:19:45.572Z,3500
2017-04-18T15:20:58.116Z,3672
2017-04-18T15:22:10.066Z,3508
2017-04-18T15:23:22.659Z,2872
2017-04-18T15:24:34.905Z,2716
2017-04-18T15:25:47.451Z,2568
2017-04-18T15:26:59.993Z,3264
2017-04-18T15:28:12.516Z,4156
2017-04-18T15:29:24.718Z,4780
2017-04-18T15:30:37.233Z,4992
2017-04-18T15:31:49.128Z,5080
2017-04-18T15:33:01.647Z,5584
2017-04-18T15:34:14.169Z,5528
2017-04-18T15:35:26.366Z,5688
2017-04-18T15:36:38.889Z,5656
2017-04-18T15:37:51.108Z,5220
2017-04-18T15:39:03.632Z,5040
2017-04-18T15:40:16.181Z,5464
2017-04-18T15:41:28.740Z,5892
2017-04-18T15:42:41.265Z,6412
2017-04-18T15:43:53.765Z,6384
2017-04-18T15:45:06.007Z,5120
2017-04-18T15:46:18.503Z,3996
2017-04-18T15:47:30.755Z,3692
2017-04-18T15:48:43.273Z,3524
2017-04-18T15:49:55.812Z,3252
2017-04-18T15:51:07.765Z,2872
2017-04-18T15:52:20.311Z,2796
2017-04-18T15:53:32.858Z,3260
2017-04-18T15:54:45.624Z,3512
2017-04-18T15:55:58.398Z,3588
2017-04-18T15:57:10.912Z,3624
2017-04-18T15:58:23.415Z,4184
2017-04-18T15:59:35.933Z,5268
2017-04-18T16:00:48.456Z,6488
2017-04-18T16:02:00.981Z,7772
2017-04-18T16:03:12.898Z,9292
2017-04-18T16:04:25.441Z,9952
2017-04-18T16:05:37.961Z,9904
2017-04-18T16:06:50.188Z,10160
2017-04-18T16:08:02.734Z,10208
2017-04-18T16:09:15.260Z,9380
2017-04-18T16:10:27.799Z,8696
2017-04-18T16:11:40.342Z,8284
2017-04-18T16:12:52.859Z,8024